sensor_id;sensor_type;location;lat;lon;timestamp;temperature;humidity
26164;DHT22;13914;48.178;11.716;2023-05-10T00:00:12;15.00;34.20
26164;DHT22;13914;48.178;11.716;2023-05-10T00:02:38;15.00;34.20
26164;DHT22;13914;48.178;11.716;2023-05-10T00:05:04;15.00;34.20
26164;DHT22;13914;48.178;11.716;2023-05-10T00:07:30;15.00;33.90
26164;DHT22;13914;48.178;11.716;2023-05-10T00:09:56;14.90;33.90
26164;DHT22;13914;48.178;11.716;2023-05-10T00:12:21;14.90;34.00
26164;DHT22;13914;48.178;11.716;2023-05-10T00:14:47;14.90;34.20
26164;DHT22;13914;48.178;11.716;2023-05-10T00:17:13;14.90;35.10
26164;DHT22;13914;48.178;11.716;2023-05-10T00:19:38;14.90;34.40
26164;DHT22;13914;48.178;11.716;2023-05-10T00:22:04;14.80;34.00
26164;DHT22;13914;48.178;11.716;2023-05-10T00:24:30;14.80;34.40
26164;DHT22;13914;48.178;11.716;2023-05-10T00:26:56;14.80;34.10
26164;DHT22;13914;48.178;11.716;2023-05-10T00:29:21;14.80;33.70
26164;DHT22;13914;48.178;11.716;2023-05-10T00:31:47;14.80;34.20
26164;DHT22;13914;48.178;11.716;2023-05-10T00:34:13;14.80;35.00
26164;DHT22;13914;48.178;11.716;2023-05-10T00:36:38;14.80;34.20
26164;DHT22;13914;48.178;11.716;2023-05-10T00:39:04;14.70;34.40
26164;DHT22;13914;48.178;11.716;2023-05-10T00:41:29;14.70;34.70
26164;DHT22;13914;48.178;11.716;2023-05-10T00:43:58;14.70;34.50
26164;DHT22;13914;48.178;11.716;2023-05-10T00:46:23;14.60;34.30
26164;DHT22;13914;48.178;11.716;2023-05-10T00:48:50;14.70;34.80
26164;DHT22;13914;48.178;11.716;2023-05-10T00:51:15;14.70;34.70
26164;DHT22;13914;48.178;11.716;2023-05-10T00:53:41;14.60;35.30
26164;DHT22;13914;48.178;11.716;2023-05-10T00:56:09;14.60;34.70
26164;DHT22;13914;48.178;11.716;2023-05-10T00:58:34;14.60;34.60
26164;DHT22;13914;48.178;11.716;2023-05-10T01:01:00;14.60;34.60
26164;DHT22;13914;48.178;11.716;2023-05-10T01:03:26;14.50;34.20
26164;DHT22;13914;48.178;11.716;2023-05-10T01:05:53;14.50;34.80
26164;DHT22;13914;48.178;11.716;2023-05-10T01:08:18;14.50;34.80
26164;DHT22;13914;48.178;11.716;2023-05-10T01:10:44;14.50;34.50
26164;DHT22;13914;48.178;11.716;2023-05-10T01:13:11;14.50;35.40
26164;DHT22;13914;48.178;11.716;2023-05-10T01:15:37;14.50;34.70
26164;DHT22;13914;48.178;11.716;2023-05-10T01:18:03;14.40;34.70
26164;DHT22;13914;48.178;11.716;2023-05-10T01:20:31;14.50;35.10
26164;DHT22;13914;48.178;11.716;2023-05-10T01:23:27;14.40;34.50
26164;DHT22;13914;48.178;11.716;2023-05-10T01:34:23;14.30;34.90
26164;DHT22;13914;48.178;11.716;2023-05-10T01:36:59;14.30;35.00
26164;DHT22;13914;48.178;11.716;2023-05-10T01:42:11;14.30;35.20
26164;DHT22;13914;48.178;11.716;2023-05-10T01:44:45;14.30;35.20
26164;DHT22;13914;48.178;11.716;2023-05-10T01:47:20;14.20;35.10
26164;DHT22;13914;48.178;11.716;2023-05-10T01:49:54;14.30;35.40
26164;DHT22;13914;48.178;11.716;2023-05-10T01:52:30;14.20;35.70
26164;DHT22;13914;48.178;11.716;2023-05-10T01:55:01;14.20;35.20
26164;DHT22;13914;48.178;11.716;2023-05-10T01:57:31;14.20;35.60
26164;DHT22;13914;48.178;11.716;2023-05-10T01:59:58;14.20;35.70
26164;DHT22;13914;48.178;11.716;2023-05-10T02:02:24;14.20;35.70
26164;DHT22;13914;48.178;11.716;2023-05-10T02:04:51;14.10;35.70
26164;DHT22;13914;48.178;11.716;2023-05-10T02:07:18;14.10;35.80
26164;DHT22;13914;48.178;11.716;2023-05-10T02:09:44;14.10;35.80
26164;DHT22;13914;48.178;11.716;2023-05-10T02:12:13;14.10;35.40
26164;DHT22;13914;48.178;11.716;2023-05-10T02:14:40;14.10;35.80
26164;DHT22;13914;48.178;11.716;2023-05-10T02:17:07;14.10;35.90
26164;DHT22;13914;48.178;11.716;2023-05-10T02:19:34;14.10;35.70
26164;DHT22;13914;48.178;11.716;2023-05-10T02:22:02;14.10;36.30
26164;DHT22;13914;48.178;11.716;2023-05-10T02:24:28;14.00;36.40
26164;DHT22;13914;48.178;11.716;2023-05-10T02:26:55;14.00;35.80
26164;DHT22;13914;48.178;11.716;2023-05-10T02:29:22;14.00;35.50
26164;DHT22;13914;48.178;11.716;2023-05-10T02:31:51;13.90;36.40
26164;DHT22;13914;48.178;11.716;2023-05-10T02:34:18;14.00;35.80
26164;DHT22;13914;48.178;11.716;2023-05-10T02:36:45;14.00;36.00
26164;DHT22;13914;48.178;11.716;2023-05-10T02:39:11;13.90;35.50
26164;DHT22;13914;48.178;11.716;2023-05-10T02:41:39;13.90;35.80
26164;DHT22;13914;48.178;11.716;2023-05-10T02:44:06;13.90;36.00
26164;DHT22;13914;48.178;11.716;2023-05-10T02:46:33;14.00;35.80
26164;DHT22;13914;48.178;11.716;2023-05-10T02:48:59;13.90;35.80
26164;DHT22;13914;48.178;11.716;2023-05-10T02:51:26;13.90;35.70
26164;DHT22;13914;48.178;11.716;2023-05-10T02:53:53;13.80;36.40
26164;DHT22;13914;48.178;11.716;2023-05-10T02:56:25;13.90;35.90
26164;DHT22;13914;48.178;11.716;2023-05-10T02:58:52;13.80;35.90
26164;DHT22;13914;48.178;11.716;2023-05-10T03:01:17;13.80;35.80
26164;DHT22;13914;48.178;11.716;2023-05-10T03:03:43;13.80;36.20
26164;DHT22;13914;48.178;11.716;2023-05-10T03:06:09;13.80;36.20
26164;DHT22;13914;48.178;11.716;2023-05-10T03:08:34;13.80;36.10
26164;DHT22;13914;48.178;11.716;2023-05-10T03:16:40;13.70;35.90
26164;DHT22;13914;48.178;11.716;2023-05-10T03:19:12;13.70;36.30
26164;DHT22;13914;48.178;11.716;2023-05-10T03:21:49;13.70;36.40
26164;DHT22;13914;48.178;11.716;2023-05-10T03:24:16;13.70;37.00
26164;DHT22;13914;48.178;11.716;2023-05-10T03:26:45;13.70;36.60
26164;DHT22;13914;48.178;11.716;2023-05-10T03:29:12;13.70;36.80
26164;DHT22;13914;48.178;11.716;2023-05-10T03:31:39;13.60;36.50
26164;DHT22;13914;48.178;11.716;2023-05-10T03:34:05;13.60;36.50
26164;DHT22;13914;48.178;11.716;2023-05-10T03:36:31;13.70;36.90
26164;DHT22;13914;48.178;11.716;2023-05-10T03:38:57;13.60;37.10
26164;DHT22;13914;48.178;11.716;2023-05-10T03:41:22;13.60;37.10
26164;DHT22;13914;48.178;11.716;2023-05-10T03:43:48;13.60;37.20
26164;DHT22;13914;48.178;11.716;2023-05-10T03:46:14;13.60;39.30
26164;DHT22;13914;48.178;11.716;2023-05-10T03:48:39;13.60;37.80
26164;DHT22;13914;48.178;11.716;2023-05-10T03:51:05;13.60;37.50
26164;DHT22;13914;48.178;11.716;2023-05-10T03:53:31;13.60;37.60
26164;DHT22;13914;48.178;11.716;2023-05-10T03:55:56;13.60;39.20
26164;DHT22;13914;48.178;11.716;2023-05-10T03:58:22;13.50;39.20
26164;DHT22;13914;48.178;11.716;2023-05-10T04:00:48;13.50;38.60
26164;DHT22;13914;48.178;11.716;2023-05-10T04:03:13;13.50;37.30
26164;DHT22;13914;48.178;11.716;2023-05-10T04:05:39;13.50;37.20
26164;DHT22;13914;48.178;11.716;2023-05-10T04:08:05;13.50;37.80
26164;DHT22;13914;48.178;11.716;2023-05-10T04:10:31;13.50;37.90
26164;DHT22;13914;48.178;11.716;2023-05-10T04:12:57;13.50;38.00
26164;DHT22;13914;48.178;11.716;2023-05-10T04:15:23;13.50;37.90
26164;DHT22;13914;48.178;11.716;2023-05-10T04:17:48;13.50;38.20
26164;DHT22;13914;48.178;11.716;2023-05-10T04:20:14;13.50;39.80
26164;DHT22;13914;48.178;11.716;2023-05-10T04:22:40;13.50;38.80
26164;DHT22;13914;48.178;11.716;2023-05-10T04:25:06;13.40;37.00
26164;DHT22;13914;48.178;11.716;2023-05-10T04:27:32;13.40;37.90
26164;DHT22;13914;48.178;11.716;2023-05-10T04:29:58;13.40;37.30
26164;DHT22;13914;48.178;11.716;2023-05-10T04:32:23;13.40;37.00
26164;DHT22;13914;48.178;11.716;2023-05-10T04:34:49;13.40;37.20
26164;DHT22;13914;48.178;11.716;2023-05-10T04:37:16;13.40;37.80
26164;DHT22;13914;48.178;11.716;2023-05-10T04:39:42;13.40;37.30
26164;DHT22;13914;48.178;11.716;2023-05-10T04:42:08;13.40;36.50
26164;DHT22;13914;48.178;11.716;2023-05-10T04:44:34;13.50;37.30
26164;DHT22;13914;48.178;11.716;2023-05-10T04:47:00;13.50;37.50
26164;DHT22;13914;48.178;11.716;2023-05-10T04:49:26;13.40;37.10
26164;DHT22;13914;48.178;11.716;2023-05-10T04:51:52;13.50;37.90
26164;DHT22;13914;48.178;11.716;2023-05-10T04:54:17;13.40;37.50
26164;DHT22;13914;48.178;11.716;2023-05-10T04:56:43;13.50;37.10
26164;DHT22;13914;48.178;11.716;2023-05-10T04:59:09;13.50;37.00
26164;DHT22;13914;48.178;11.716;2023-05-10T05:01:34;13.50;37.10
26164;DHT22;13914;48.178;11.716;2023-05-10T05:04:00;13.50;36.70
26164;DHT22;13914;48.178;11.716;2023-05-10T05:06:26;13.50;37.00
26164;DHT22;13914;48.178;11.716;2023-05-10T05:08:52;13.50;37.60
26164;DHT22;13914;48.178;11.716;2023-05-10T05:11:18;13.50;37.20
26164;DHT22;13914;48.178;11.716;2023-05-10T05:13:44;13.50;37.60
26164;DHT22;13914;48.178;11.716;2023-05-10T05:16:09;13.50;37.50
26164;DHT22;13914;48.178;11.716;2023-05-10T05:18:36;13.50;37.70
26164;DHT22;13914;48.178;11.716;2023-05-10T05:21:02;13.50;37.50
26164;DHT22;13914;48.178;11.716;2023-05-10T05:23:28;13.50;37.80
26164;DHT22;13914;48.178;11.716;2023-05-10T05:25:53;13.50;38.20
26164;DHT22;13914;48.178;11.716;2023-05-10T05:28:20;13.50;37.90
26164;DHT22;13914;48.178;11.716;2023-05-10T05:30:46;13.50;38.70
26164;DHT22;13914;48.178;11.716;2023-05-10T05:33:13;13.50;39.80
26164;DHT22;13914;48.178;11.716;2023-05-10T05:35:39;13.50;40.80
26164;DHT22;13914;48.178;11.716;2023-05-10T05:38:04;13.50;41.20
26164;DHT22;13914;48.178;11.716;2023-05-10T05:40:30;13.40;41.20
26164;DHT22;13914;48.178;11.716;2023-05-10T05:42:56;13.40;40.80
26164;DHT22;13914;48.178;11.716;2023-05-10T05:45:22;13.40;42.20
26164;DHT22;13914;48.178;11.716;2023-05-10T05:47:47;13.40;41.20
26164;DHT22;13914;48.178;11.716;2023-05-10T05:50:13;13.40;41.40
26164;DHT22;13914;48.178;11.716;2023-05-10T05:52:39;13.40;42.10
26164;DHT22;13914;48.178;11.716;2023-05-10T05:55:05;13.30;41.30
26164;DHT22;13914;48.178;11.716;2023-05-10T05:57:31;13.40;41.70
26164;DHT22;13914;48.178;11.716;2023-05-10T05:59:56;13.30;42.20
26164;DHT22;13914;48.178;11.716;2023-05-10T06:02:22;13.30;40.80
26164;DHT22;13914;48.178;11.716;2023-05-10T06:04:48;13.40;41.40
26164;DHT22;13914;48.178;11.716;2023-05-10T06:07:13;13.40;40.70
26164;DHT22;13914;48.178;11.716;2023-05-10T06:09:39;13.40;41.30
26164;DHT22;13914;48.178;11.716;2023-05-10T06:12:05;13.30;41.40
26164;DHT22;13914;48.178;11.716;2023-05-10T06:14:30;13.30;41.30
26164;DHT22;13914;48.178;11.716;2023-05-10T06:16:56;13.40;42.10
26164;DHT22;13914;48.178;11.716;2023-05-10T06:19:24;13.40;41.60
26164;DHT22;13914;48.178;11.716;2023-05-10T06:21:51;13.40;41.60
26164;DHT22;13914;48.178;11.716;2023-05-10T06:24:17;13.40;42.30
26164;DHT22;13914;48.178;11.716;2023-05-10T06:26:42;13.30;41.70
26164;DHT22;13914;48.178;11.716;2023-05-10T06:29:08;13.40;40.60
26164;DHT22;13914;48.178;11.716;2023-05-10T06:31:34;13.40;41.50
26164;DHT22;13914;48.178;11.716;2023-05-10T06:33:59;13.30;41.60
26164;DHT22;13914;48.178;11.716;2023-05-10T06:36:25;13.30;40.20
26164;DHT22;13914;48.178;11.716;2023-05-10T06:38:52;13.40;42.10
26164;DHT22;13914;48.178;11.716;2023-05-10T06:41:18;13.30;42.40
26164;DHT22;13914;48.178;11.716;2023-05-10T06:43:43;13.40;42.60
26164;DHT22;13914;48.178;11.716;2023-05-10T06:46:09;13.40;41.90
26164;DHT22;13914;48.178;11.716;2023-05-10T06:48:35;13.40;41.50
26164;DHT22;13914;48.178;11.716;2023-05-10T06:51:01;13.40;42.40
26164;DHT22;13914;48.178;11.716;2023-05-10T06:53:26;13.40;42.70
26164;DHT22;13914;48.178;11.716;2023-05-10T06:55:52;13.40;43.20
26164;DHT22;13914;48.178;11.716;2023-05-10T06:58:18;13.40;42.90
26164;DHT22;13914;48.178;11.716;2023-05-10T07:00:44;13.50;42.20
26164;DHT22;13914;48.178;11.716;2023-05-10T07:03:10;13.50;42.00
26164;DHT22;13914;48.178;11.716;2023-05-10T07:05:36;13.50;42.90
26164;DHT22;13914;48.178;11.716;2023-05-10T07:08:01;13.50;42.80
26164;DHT22;13914;48.178;11.716;2023-05-10T07:10:27;13.60;42.60
26164;DHT22;13914;48.178;11.716;2023-05-10T07:12:53;13.60;42.70
26164;DHT22;13914;48.178;11.716;2023-05-10T07:15:19;13.60;42.40
26164;DHT22;13914;48.178;11.716;2023-05-10T07:17:45;13.60;42.70
26164;DHT22;13914;48.178;11.716;2023-05-10T07:20:10;13.70;43.70
26164;DHT22;13914;48.178;11.716;2023-05-10T07:22:36;13.70;42.40
26164;DHT22;13914;48.178;11.716;2023-05-10T07:25:02;13.70;42.90
26164;DHT22;13914;48.178;11.716;2023-05-10T07:27:28;13.80;44.10
26164;DHT22;13914;48.178;11.716;2023-05-10T07:29:54;13.90;42.30
26164;DHT22;13914;48.178;11.716;2023-05-10T07:32:20;14.00;42.20
26164;DHT22;13914;48.178;11.716;2023-05-10T07:34:46;14.00;43.00
26164;DHT22;13914;48.178;11.716;2023-05-10T07:37:12;14.00;41.80
26164;DHT22;13914;48.178;11.716;2023-05-10T07:39:37;14.10;42.10
26164;DHT22;13914;48.178;11.716;2023-05-10T07:42:03;14.10;41.80
26164;DHT22;13914;48.178;11.716;2023-05-10T07:44:29;14.10;41.80
26164;DHT22;13914;48.178;11.716;2023-05-10T07:46:55;14.20;42.00
26164;DHT22;13914;48.178;11.716;2023-05-10T07:49:21;14.20;42.00
26164;DHT22;13914;48.178;11.716;2023-05-10T07:51:46;14.30;40.80
26164;DHT22;13914;48.178;11.716;2023-05-10T07:54:13;14.30;41.40
26164;DHT22;13914;48.178;11.716;2023-05-10T07:56:39;14.40;41.30
26164;DHT22;13914;48.178;11.716;2023-05-10T07:59:07;14.40;42.10
26164;DHT22;13914;48.178;11.716;2023-05-10T08:01:33;14.50;41.40
26164;DHT22;13914;48.178;11.716;2023-05-10T08:03:59;14.50;41.50
26164;DHT22;13914;48.178;11.716;2023-05-10T08:06:25;14.60;41.20
26164;DHT22;13914;48.178;11.716;2023-05-10T08:08:55;14.60;41.50
26164;DHT22;13914;48.178;11.716;2023-05-10T08:11:21;14.70;41.50
26164;DHT22;13914;48.178;11.716;2023-05-10T08:13:47;14.70;41.10
26164;DHT22;13914;48.178;11.716;2023-05-10T08:16:14;14.80;41.00
26164;DHT22;13914;48.178;11.716;2023-05-10T08:18:40;14.90;40.80
26164;DHT22;13914;48.178;11.716;2023-05-10T08:21:06;15.00;40.30
26164;DHT22;13914;48.178;11.716;2023-05-10T08:23:33;15.00;40.60
26164;DHT22;13914;48.178;11.716;2023-05-10T08:25:59;15.10;40.00
26164;DHT22;13914;48.178;11.716;2023-05-10T08:28:25;15.10;40.10
26164;DHT22;13914;48.178;11.716;2023-05-10T08:30:51;15.20;40.30
26164;DHT22;13914;48.178;11.716;2023-05-10T08:33:17;15.30;39.90
26164;DHT22;13914;48.178;11.716;2023-05-10T08:35:43;15.30;39.60
26164;DHT22;13914;48.178;11.716;2023-05-10T08:38:09;15.50;39.80
26164;DHT22;13914;48.178;11.716;2023-05-10T08:40:36;15.50;40.00
26164;DHT22;13914;48.178;11.716;2023-05-10T08:43:06;15.60;39.70
26164;DHT22;13914;48.178;11.716;2023-05-10T08:45:38;15.70;39.20
26164;DHT22;13914;48.178;11.716;2023-05-10T08:48:05;15.80;38.80
26164;DHT22;13914;48.178;11.716;2023-05-10T08:50:32;15.90;38.60
26164;DHT22;13914;48.178;11.716;2023-05-10T08:53:00;16.00;38.40
26164;DHT22;13914;48.178;11.716;2023-05-10T08:55:29;16.10;38.60
26164;DHT22;13914;48.178;11.716;2023-05-10T08:57:55;16.10;37.80
26164;DHT22;13914;48.178;11.716;2023-05-10T09:00:21;16.10;37.40
26164;DHT22;13914;48.178;11.716;2023-05-10T09:02:49;16.20;37.80
26164;DHT22;13914;48.178;11.716;2023-05-10T09:05:15;16.30;37.50
26164;DHT22;13914;48.178;11.716;2023-05-10T09:07:41;16.40;37.70
26164;DHT22;13914;48.178;11.716;2023-05-10T09:10:07;16.40;37.10
26164;DHT22;13914;48.178;11.716;2023-05-10T09:12:34;16.50;37.50
26164;DHT22;13914;48.178;11.716;2023-05-10T09:15:00;16.60;37.30
26164;DHT22;13914;48.178;11.716;2023-05-10T09:17:27;16.60;37.10
26164;DHT22;13914;48.178;11.716;2023-05-10T09:19:58;16.70;36.60
26164;DHT22;13914;48.178;11.716;2023-05-10T09:22:24;16.80;36.90
26164;DHT22;13914;48.178;11.716;2023-05-10T09:25:03;16.90;36.40
26164;DHT22;13914;48.178;11.716;2023-05-10T09:27:33;16.90;36.60
26164;DHT22;13914;48.178;11.716;2023-05-10T09:29:59;17.00;36.60
26164;DHT22;13914;48.178;11.716;2023-05-10T09:32:44;17.00;36.70
26164;DHT22;13914;48.178;11.716;2023-05-10T09:35:13;17.10;35.40
26164;DHT22;13914;48.178;11.716;2023-05-10T09:37:41;17.10;35.70
26164;DHT22;13914;48.178;11.716;2023-05-10T09:40:08;17.20;35.90
26164;DHT22;13914;48.178;11.716;2023-05-10T09:42:37;17.30;35.20
26164;DHT22;13914;48.178;11.716;2023-05-10T09:45:05;17.30;35.30
26164;DHT22;13914;48.178;11.716;2023-05-10T09:47:35;17.40;34.20
26164;DHT22;13914;48.178;11.716;2023-05-10T09:50:02;17.30;34.90
26164;DHT22;13914;48.178;11.716;2023-05-10T09:52:29;17.30;34.60
26164;DHT22;13914;48.178;11.716;2023-05-10T09:55:14;17.30;35.50
26164;DHT22;13914;48.178;11.716;2023-05-10T09:57:40;17.30;35.70
26164;DHT22;13914;48.178;11.716;2023-05-10T10:00:06;17.40;35.40
26164;DHT22;13914;48.178;11.716;2023-05-10T10:02:32;17.40;35.70
26164;DHT22;13914;48.178;11.716;2023-05-10T10:05:00;17.40;35.50
26164;DHT22;13914;48.178;11.716;2023-05-10T10:07:27;17.50;35.40
26164;DHT22;13914;48.178;11.716;2023-05-10T10:09:53;17.50;35.50
26164;DHT22;13914;48.178;11.716;2023-05-10T10:12:19;17.50;35.40
26164;DHT22;13914;48.178;11.716;2023-05-10T10:14:48;17.60;35.40
26164;DHT22;13914;48.178;11.716;2023-05-10T10:17:15;17.60;35.00
26164;DHT22;13914;48.178;11.716;2023-05-10T10:19:41;17.50;34.60
26164;DHT22;13914;48.178;11.716;2023-05-10T10:22:07;17.40;34.50
26164;DHT22;13914;48.178;11.716;2023-05-10T10:24:35;17.40;35.00
26164;DHT22;13914;48.178;11.716;2023-05-10T10:27:07;17.50;34.40
26164;DHT22;13914;48.178;11.716;2023-05-10T10:29:47;17.40;35.00
26164;DHT22;13914;48.178;11.716;2023-05-10T10:32:26;17.40;34.20
26164;DHT22;13914;48.178;11.716;2023-05-10T10:34:55;17.40;34.40
26164;DHT22;13914;48.178;11.716;2023-05-10T10:37:21;17.40;34.80
26164;DHT22;13914;48.178;11.716;2023-05-10T10:39:50;17.30;34.80
26164;DHT22;13914;48.178;11.716;2023-05-10T10:42:37;17.30;34.40
26164;DHT22;13914;48.178;11.716;2023-05-10T10:45:17;17.40;34.10
26164;DHT22;13914;48.178;11.716;2023-05-10T10:47:42;17.40;34.70
26164;DHT22;13914;48.178;11.716;2023-05-10T10:50:09;17.40;34.90
26164;DHT22;13914;48.178;11.716;2023-05-10T10:52:39;17.40;34.60
26164;DHT22;13914;48.178;11.716;2023-05-10T10:55:06;17.40;34.20
26164;DHT22;13914;48.178;11.716;2023-05-10T10:57:43;17.40;34.10
26164;DHT22;13914;48.178;11.716;2023-05-10T11:00:23;17.40;34.80
26164;DHT22;13914;48.178;11.716;2023-05-10T11:02:51;17.30;34.40
26164;DHT22;13914;48.178;11.716;2023-05-10T11:13:31;17.30;34.30
26164;DHT22;13914;48.178;11.716;2023-05-10T11:15:58;17.40;34.50
26164;DHT22;13914;48.178;11.716;2023-05-10T11:18:29;17.40;33.90
26164;DHT22;13914;48.178;11.716;2023-05-10T11:20:59;17.40;34.50
26164;DHT22;13914;48.178;11.716;2023-05-10T11:23:29;17.40;34.10
26164;DHT22;13914;48.178;11.716;2023-05-10T11:25:56;17.30;34.30
26164;DHT22;13914;48.178;11.716;2023-05-10T11:28:21;17.40;34.10
26164;DHT22;13914;48.178;11.716;2023-05-10T11:30:47;17.30;34.20
26164;DHT22;13914;48.178;11.716;2023-05-10T11:33:16;17.30;34.20
26164;DHT22;13914;48.178;11.716;2023-05-10T11:35:43;17.40;34.60
26164;DHT22;13914;48.178;11.716;2023-05-10T11:38:12;17.30;34.90
26164;DHT22;13914;48.178;11.716;2023-05-10T11:40:38;17.30;34.90
26164;DHT22;13914;48.178;11.716;2023-05-10T11:43:04;17.30;34.70
26164;DHT22;13914;48.178;11.716;2023-05-10T11:45:34;17.20;34.70
26164;DHT22;13914;48.178;11.716;2023-05-10T11:48:00;17.20;34.80
26164;DHT22;13914;48.178;11.716;2023-05-10T11:50:26;17.20;35.10
26164;DHT22;13914;48.178;11.716;2023-05-10T11:52:53;17.20;34.60
26164;DHT22;13914;48.178;11.716;2023-05-10T11:55:19;17.10;35.10
26164;DHT22;13914;48.178;11.716;2023-05-10T11:57:45;17.10;35.40
26164;DHT22;13914;48.178;11.716;2023-05-10T12:00:11;17.10;35.30
26164;DHT22;13914;48.178;11.716;2023-05-10T12:02:40;17.10;35.40
26164;DHT22;13914;48.178;11.716;2023-05-10T12:05:06;17.10;35.10
26164;DHT22;13914;48.178;11.716;2023-05-10T12:07:32;17.10;35.50
26164;DHT22;13914;48.178;11.716;2023-05-10T12:10:07;17.10;35.30
26164;DHT22;13914;48.178;11.716;2023-05-10T12:12:37;17.10;35.10
26164;DHT22;13914;48.178;11.716;2023-05-10T12:15:19;17.10;35.40
26164;DHT22;13914;48.178;11.716;2023-05-10T12:17:48;17.10;35.40
26164;DHT22;13914;48.178;11.716;2023-05-10T12:20:18;17.10;35.30
26164;DHT22;13914;48.178;11.716;2023-05-10T12:22:52;17.10;35.20
26164;DHT22;13914;48.178;11.716;2023-05-10T12:25:19;17.10;35.20
26164;DHT22;13914;48.178;11.716;2023-05-10T12:27:50;17.00;35.20
26164;DHT22;13914;48.178;11.716;2023-05-10T12:30:23;17.00;35.10
26164;DHT22;13914;48.178;11.716;2023-05-10T12:32:59;17.00;35.30
26164;DHT22;13914;48.178;11.716;2023-05-10T12:35:47;17.00;35.40
26164;DHT22;13914;48.178;11.716;2023-05-10T12:38:27;16.90;35.40
26164;DHT22;13914;48.178;11.716;2023-05-10T12:41:00;16.90;35.30
26164;DHT22;13914;48.178;11.716;2023-05-10T12:43:27;16.90;35.30
26164;DHT22;13914;48.178;11.716;2023-05-10T12:45:53;16.80;35.30
26164;DHT22;13914;48.178;11.716;2023-05-10T12:48:19;16.80;35.40
26164;DHT22;13914;48.178;11.716;2023-05-10T12:50:45;16.70;35.30
26164;DHT22;13914;48.178;11.716;2023-05-10T12:53:13;16.70;35.50
26164;DHT22;13914;48.178;11.716;2023-05-10T12:55:43;16.70;35.40
26164;DHT22;13914;48.178;11.716;2023-05-10T12:58:09;16.60;34.90
26164;DHT22;13914;48.178;11.716;2023-05-10T13:00:35;16.60;35.50
26164;DHT22;13914;48.178;11.716;2023-05-10T13:03:03;16.50;35.70
26164;DHT22;13914;48.178;11.716;2023-05-10T13:05:33;16.50;35.60
26164;DHT22;13914;48.178;11.716;2023-05-10T13:07:58;16.50;35.70
26164;DHT22;13914;48.178;11.716;2023-05-10T13:10:24;16.40;35.70
26164;DHT22;13914;48.178;11.716;2023-05-10T13:12:50;16.40;35.80
26164;DHT22;13914;48.178;11.716;2023-05-10T13:15:16;16.40;36.00
26164;DHT22;13914;48.178;11.716;2023-05-10T13:17:42;16.30;35.80
26164;DHT22;13914;48.178;11.716;2023-05-10T13:20:08;16.30;35.90
26164;DHT22;13914;48.178;11.716;2023-05-10T13:22:37;16.30;35.80
26164;DHT22;13914;48.178;11.716;2023-05-10T13:25:02;16.20;35.90
26164;DHT22;13914;48.178;11.716;2023-05-10T13:27:28;16.20;35.80
26164;DHT22;13914;48.178;11.716;2023-05-10T13:29:54;16.20;35.70
26164;DHT22;13914;48.178;11.716;2023-05-10T13:32:20;16.20;36.00
26164;DHT22;13914;48.178;11.716;2023-05-10T13:34:46;16.20;35.90
26164;DHT22;13914;48.178;11.716;2023-05-10T13:37:12;16.10;35.80
26164;DHT22;13914;48.178;11.716;2023-05-10T13:39:37;16.10;35.90
26164;DHT22;13914;48.178;11.716;2023-05-10T13:42:03;16.10;35.90
26164;DHT22;13914;48.178;11.716;2023-05-10T13:44:30;16.10;35.50
26164;DHT22;13914;48.178;11.716;2023-05-10T13:46:56;16.10;35.80
26164;DHT22;13914;48.178;11.716;2023-05-10T13:49:22;16.00;35.90
26164;DHT22;13914;48.178;11.716;2023-05-10T13:51:47;16.00;35.90
26164;DHT22;13914;48.178;11.716;2023-05-10T13:54:13;16.00;36.00
26164;DHT22;13914;48.178;11.716;2023-05-10T13:56:39;16.00;36.00
26164;DHT22;13914;48.178;11.716;2023-05-10T13:59:06;16.00;36.20
26164;DHT22;13914;48.178;11.716;2023-05-10T14:01:33;16.00;36.20
26164;DHT22;13914;48.178;11.716;2023-05-10T14:03:59;16.00;36.20
26164;DHT22;13914;48.178;11.716;2023-05-10T14:06:25;16.00;36.50
26164;DHT22;13914;48.178;11.716;2023-05-10T14:08:51;16.00;36.20
26164;DHT22;13914;48.178;11.716;2023-05-10T14:11:17;16.00;36.50
26164;DHT22;13914;48.178;11.716;2023-05-10T14:13:43;16.00;36.80
26164;DHT22;13914;48.178;11.716;2023-05-10T14:16:08;15.90;36.40
26164;DHT22;13914;48.178;11.716;2023-05-10T14:18:34;16.00;36.80
26164;DHT22;13914;48.178;11.716;2023-05-10T14:21:01;16.00;36.90
26164;DHT22;13914;48.178;11.716;2023-05-10T14:23:27;15.90;37.10
26164;DHT22;13914;48.178;11.716;2023-05-10T14:25:53;16.00;36.70
26164;DHT22;13914;48.178;11.716;2023-05-10T14:28:19;16.00;37.00
26164;DHT22;13914;48.178;11.716;2023-05-10T14:30:46;16.00;36.90
26164;DHT22;13914;48.178;11.716;2023-05-10T14:33:12;16.00;36.80
26164;DHT22;13914;48.178;11.716;2023-05-10T14:35:38;16.00;37.00
26164;DHT22;13914;48.178;11.716;2023-05-10T14:38:04;16.00;37.10
26164;DHT22;13914;48.178;11.716;2023-05-10T14:40:30;16.00;37.10
26164;DHT22;13914;48.178;11.716;2023-05-10T14:42:56;16.00;37.20
26164;DHT22;13914;48.178;11.716;2023-05-10T14:45:22;15.90;36.70
26164;DHT22;13914;48.178;11.716;2023-05-10T14:47:48;15.90;37.20
26164;DHT22;13914;48.178;11.716;2023-05-10T14:50:14;16.00;37.20
26164;DHT22;13914;48.178;11.716;2023-05-10T14:52:42;15.90;37.20
26164;DHT22;13914;48.178;11.716;2023-05-10T14:55:08;15.90;37.10
26164;DHT22;13914;48.178;11.716;2023-05-10T14:57:34;15.90;37.20
26164;DHT22;13914;48.178;11.716;2023-05-10T14:59:59;15.90;37.10
26164;DHT22;13914;48.178;11.716;2023-05-10T15:02:25;15.90;36.70
26164;DHT22;13914;48.178;11.716;2023-05-10T15:04:51;15.90;36.50
26164;DHT22;13914;48.178;11.716;2023-05-10T15:07:16;15.80;36.50
26164;DHT22;13914;48.178;11.716;2023-05-10T15:09:44;15.80;37.10
26164;DHT22;13914;48.178;11.716;2023-05-10T15:12:10;15.80;37.20
26164;DHT22;13914;48.178;11.716;2023-05-10T15:14:36;15.80;37.20
26164;DHT22;13914;48.178;11.716;2023-05-10T15:17:02;15.80;37.10
26164;DHT22;13914;48.178;11.716;2023-05-10T15:19:28;15.70;37.00
26164;DHT22;13914;48.178;11.716;2023-05-10T15:21:54;15.70;37.20
26164;DHT22;13914;48.178;11.716;2023-05-10T15:24:21;15.70;37.20
26164;DHT22;13914;48.178;11.716;2023-05-10T15:26:47;15.70;37.20
26164;DHT22;13914;48.178;11.716;2023-05-10T15:29:13;15.60;36.80
26164;DHT22;13914;48.178;11.716;2023-05-10T15:31:45;15.60;37.20
26164;DHT22;13914;48.178;11.716;2023-05-10T15:34:12;15.60;37.10
26164;DHT22;13914;48.178;11.716;2023-05-10T15:36:38;15.50;37.10
26164;DHT22;13914;48.178;11.716;2023-05-10T15:39:03;15.50;37.10